sensor_id;sensor_type;location;lat;lon;timestamp;P1;durP1;ratioP1;P2;durP2;ratioP2
20397;SDS011;10358;49.590;11.030;2023-09-19T00:01:28;4.35;;;2.60;;
20397;SDS011;10358;49.590;11.030;2023-09-19T00:03:55;9.00;;;2.33;;
20397;SDS011;10358;49.590;11.030;2023-09-19T00:06:22;8.73;;;2.70;;
20397;SDS011;10358;49.590;11.030;2023-09-19T00:08:51;7.40;;;2.63;;
20397;SDS011;10358;49.590;11.030;2023-09-19T00:11:16;8.82;;;2.65;;
20397;SDS011;10358;49.590;11.030;2023-09-19T00:13:42;7.40;;;2.42;;
20397;SDS011;10358;49.590;11.030;2023-09-19T00:16:08;5.55;;;2.15;;
20397;SDS011;10358;49.590;11.030;2023-09-19T00:18:39;3.50;;;2.40;;
20397;SDS011;10358;49.590;11.030;2023-09-19T00:21:04;4.22;;;2.40;;
20397;SDS011;10358;49.590;11.030;2023-09-19T00:23:30;3.95;;;2.00;;
20397;SDS011;10358;49.590;11.030;2023-09-19T00:25:59;6.07;;;2.15;;
20397;SDS011;10358;49.590;11.030;2023-09-19T00:28:26;4.60;;;2.40;;
20397;SDS011;10358;49.590;11.030;2023-09-19T00:30:51;7.72;;;2.28;;
20397;SDS011;10358;49.590;11.030;2023-09-19T00:33:19;3.90;;;2.08;;
20397;SDS011;10358;49.590;11.030;2023-09-19T00:35:51;5.10;;;2.20;;
20397;SDS011;10358;49.590;11.030;2023-09-19T00:38:18;5.93;;;2.30;;
20397;SDS011;10358;49.590;11.030;2023-09-19T00:40:47;5.70;;;2.30;;
20397;SDS011;10358;49.590;11.030;2023-09-19T00:43:13;9.43;;;2.55;;
20397;SDS011;10358;49.590;11.030;2023-09-19T00:45:42;4.18;;;2.40;;
20397;SDS011;10358;49.590;11.030;2023-09-19T00:48:09;6.45;;;2.42;;
20397;SDS011;10358;49.590;11.030;2023-09-19T00:50:35;4.47;;;2.08;;
20397;SDS011;10358;49.590;11.030;2023-09-19T00:53:01;9.85;;;2.20;;
20397;SDS011;10358;49.590;11.030;2023-09-19T00:55:33;5.82;;;2.40;;
20397;SDS011;10358;49.590;11.030;2023-09-19T00:57:59;8.52;;;2.30;;
20397;SDS011;10358;49.590;11.030;2023-09-19T01:00:26;3.80;;;2.13;;
20397;SDS011;10358;49.590;11.030;2023-09-19T01:02:52;7.53;;;2.45;;
20397;SDS011;10358;49.590;11.030;2023-09-19T01:05:18;7.80;;;2.30;;
20397;SDS011;10358;49.590;11.030;2023-09-19T01:07:44;6.07;;;2.30;;
20397;SDS011;10358;49.590;11.030;2023-09-19T01:10:14;7.70;;;2.95;;
20397;SDS011;10358;49.590;11.030;2023-09-19T01:21:01;7.50;;;2.30;;
20397;SDS011;10358;49.590;11.030;2023-09-19T01:23:52;5.07;;;2.00;;
20397;SDS011;10358;49.590;11.030;2023-09-19T01:29:38;6.03;;;1.90;;
20397;SDS011;10358;49.590;11.030;2023-09-19T01:32:09;7.35;;;1.90;;
20397;SDS011;10358;49.590;11.030;2023-09-19T01:34:49;5.55;;;1.73;;
20397;SDS011;10358;49.590;11.030;2023-09-19T01:37:18;4.00;;;1.85;;
20397;SDS011;10358;49.590;11.030;2023-09-19T01:39:46;6.15;;;1.95;;
20397;SDS011;10358;49.590;11.030;2023-09-19T01:45:03;5.70;;;2.33;;
20397;SDS011;10358;49.590;11.030;2023-09-19T01:47:38;7.97;;;2.15;;
20397;SDS011;10358;49.590;11.030;2023-09-19T01:50:17;8.90;;;2.63;;
20397;SDS011;10358;49.590;11.030;2023-09-19T01:52:50;5.78;;;2.22;;
20397;SDS011;10358;49.590;11.030;2023-09-19T01:55:21;4.85;;;1.83;;
20397;SDS011;10358;49.590;11.030;2023-09-19T01:57:54;4.95;;;2.30;;
20397;SDS011;10358;49.590;11.030;2023-09-19T02:00:29;7.50;;;2.65;;
20397;SDS011;10358;49.590;11.030;2023-09-19T02:02:58;7.75;;;2.05;;
20397;SDS011;10358;49.590;11.030;2023-09-19T02:05:25;5.72;;;1.95;;
20397;SDS011;10358;49.590;11.030;2023-09-19T02:07:52;6.53;;;2.15;;
20397;SDS011;10358;49.590;11.030;2023-09-19T02:10:19;4.53;;;2.10;;
20397;SDS011;10358;49.590;11.030;2023-09-19T02:12:45;3.15;;;2.00;;
20397;SDS011;10358;49.590;11.030;2023-09-19T02:15:11;5.20;;;2.00;;
20397;SDS011;10358;49.590;11.030;2023-09-19T02:17:37;4.95;;;1.70;;
20397;SDS011;10358;49.590;11.030;2023-09-19T02:20:03;5.47;;;1.88;;
20397;SDS011;10358;49.590;11.030;2023-09-19T02:22:35;6.20;;;2.45;;
20397;SDS011;10358;49.590;11.030;2023-09-19T02:25:02;6.82;;;1.80;;
20397;SDS011;10358;49.590;11.030;2023-09-19T02:27:29;4.10;;;1.90;;
20397;SDS011;10358;49.590;11.030;2023-09-19T02:29:55;7.55;;;1.90;;
20397;SDS011;10358;49.590;11.030;2023-09-19T02:32:21;6.03;;;2.13;;
20397;SDS011;10358;49.590;11.030;2023-09-19T02:34:48;5.82;;;2.08;;
20397;SDS011;10358;49.590;11.030;2023-09-19T02:37:13;5.43;;;2.10;;
20397;SDS011;10358;49.590;11.030;2023-09-19T02:39:41;6.35;;;1.70;;
20397;SDS011;10358;49.590;11.030;2023-09-19T02:42:07;5.75;;;2.13;;
20397;SDS011;10358;49.590;11.030;2023-09-19T02:44:32;4.00;;;2.10;;
20397;SDS011;10358;49.590;11.030;2023-09-19T02:46:58;5.57;;;1.92;;
20397;SDS011;10358;49.590;11.030;2023-09-19T02:49:24;4.97;;;1.90;;
20397;SDS011;10358;49.590;11.030;2023-09-19T02:51:50;5.03;;;1.83;;
20397;SDS011;10358;49.590;11.030;2023-09-19T02:54:16;6.20;;;1.80;;
20397;SDS011;10358;49.590;11.030;2023-09-19T02:56:42;3.67;;;1.48;;
20397;SDS011;10358;49.590;11.030;2023-09-19T02:59:08;6.68;;;1.60;;
20397;SDS011;10358;49.590;11.030;2023-09-19T03:01:37;5.13;;;1.80;;
20397;SDS011;10358;49.590;11.030;2023-09-19T03:04:04;5.45;;;1.90;;
20397;SDS011;10358;49.590;11.030;2023-09-19T03:06:31;5.45;;;1.80;;
20397;SDS011;10358;49.590;11.030;2023-09-19T03:08:57;8.43;;;1.92;;
20397;SDS011;10358;49.590;11.030;2023-09-19T03:11:25;5.15;;;2.30;;
20397;SDS011;10358;49.590;11.030;2023-09-19T03:13:54;11.50;;;2.65;;
20397;SDS011;10358;49.590;11.030;2023-09-19T03:16:20;5.32;;;2.30;;
20397;SDS011;10358;49.590;11.030;2023-09-19T03:18:50;5.50;;;2.20;;
20397;SDS011;10358;49.590;11.030;2023-09-19T03:21:16;5.95;;;2.53;;
20397;SDS011;10358;49.590;11.030;2023-09-19T03:23:42;5.47;;;2.30;;
20397;SDS011;10358;49.590;11.030;2023-09-19T03:26:10;3.67;;;1.90;;
20397;SDS011;10358;49.590;11.030;2023-09-19T03:28:37;3.80;;;1.70;;
20397;SDS011;10358;49.590;11.030;2023-09-19T03:31:03;4.97;;;2.10;;
20397;SDS011;10358;49.590;11.030;2023-09-19T03:33:30;4.57;;;1.50;;
20397;SDS011;10358;49.590;11.030;2023-09-19T03:35:59;2.92;;;1.67;;
20397;SDS011;10358;49.590;11.030;2023-09-19T03:38:26;5.57;;;1.75;;
20397;SDS011;10358;49.590;11.030;2023-09-19T03:40:52;3.63;;;1.60;;
20397;SDS011;10358;49.590;11.030;2023-09-19T03:43:18;5.25;;;1.65;;
20397;SDS011;10358;49.590;11.030;2023-09-19T03:45:44;6.28;;;1.50;;
20397;SDS011;10358;49.590;11.030;2023-09-19T03:48:10;3.20;;;1.58;;
20397;SDS011;10358;49.590;11.030;2023-09-19T03:50:35;4.88;;;1.63;;
20397;SDS011;10358;49.590;11.030;2023-09-19T03:53:01;4.32;;;1.40;;
20397;SDS011;10358;49.590;11.030;2023-09-19T03:55:28;6.07;;;1.40;;
20397;SDS011;10358;49.590;11.030;2023-09-19T03:57:55;7.45;;;3.17;;
20397;SDS011;10358;49.590;11.030;2023-09-19T04:00:21;4.57;;;2.22;;
20397;SDS011;10358;49.590;11.030;2023-09-19T04:02:48;4.40;;;1.80;;
20397;SDS011;10358;49.590;11.030;2023-09-19T04:05:16;5.65;;;1.50;;
20397;SDS011;10358;49.590;11.030;2023-09-19T04:07:41;1.83;;;1.35;;
20397;SDS011;10358;49.590;11.030;2023-09-19T04:10:07;2.70;;;1.30;;
20397;SDS011;10358;49.590;11.030;2023-09-19T04:12:39;5.78;;;1.70;;
20397;SDS011;10358;49.590;11.030;2023-09-19T04:15:05;3.95;;;1.40;;
20397;SDS011;10358;49.590;11.030;2023-09-19T04:17:32;3.10;;;1.55;;
20397;SDS011;10358;49.590;11.030;2023-09-19T04:19:58;4.68;;;1.50;;
20397;SDS011;10358;49.590;11.030;2023-09-19T04:22:24;4.63;;;1.80;;
20397;SDS011;10358;49.590;11.030;2023-09-19T04:24:50;2.47;;;1.55;;
20397;SDS011;10358;49.590;11.030;2023-09-19T04:27:15;2.83;;;1.50;;
20397;SDS011;10358;49.590;11.030;2023-09-19T04:29:41;7.90;;;1.45;;
20397;SDS011;10358;49.590;11.030;2023-09-19T04:32:07;2.90;;;1.70;;
20397;SDS011;10358;49.590;11.030;2023-09-19T04:34:33;3.13;;;1.48;;
20397;SDS011;10358;49.590;11.030;2023-09-19T04:37:03;4.72;;;1.70;;
20397;SDS011;10358;49.590;11.030;2023-09-19T04:39:28;3.85;;;1.50;;
20397;SDS011;10358;49.590;11.030;2023-09-19T04:41:54;5.15;;;1.58;;
20397;SDS011;10358;49.590;11.030;2023-09-19T04:44:20;4.72;;;1.60;;
20397;SDS011;10358;49.590;11.030;2023-09-19T04:46:48;3.58;;;1.52;;
20397;SDS011;10358;49.590;11.030;2023-09-19T04:49:13;4.40;;;1.55;;
20397;SDS011;10358;49.590;11.030;2023-09-19T04:51:39;2.33;;;1.40;;
20397;SDS011;10358;49.590;11.030;2023-09-19T04:54:05;5.18;;;1.38;;
20397;SDS011;10358;49.590;11.030;2023-09-19T04:56:31;4.05;;;1.38;;
20397;SDS011;10358;49.590;11.030;2023-09-19T04:58:58;8.10;;;1.75;;
20397;SDS011;10358;49.590;11.030;2023-09-19T05:01:25;2.83;;;1.40;;
20397;SDS011;10358;49.590;11.030;2023-09-19T05:03:50;4.43;;;1.60;;
20397;SDS011;10358;49.590;11.030;2023-09-19T05:06:19;4.60;;;1.50;;
20397;SDS011;10358;49.590;11.030;2023-09-19T05:08:48;6.40;;;1.85;;
20397;SDS011;10358;49.590;11.030;2023-09-19T05:11:17;3.45;;;1.50;;
20397;SDS011;10358;49.590;11.030;2023-09-19T05:13:44;5.10;;;1.83;;
20397;SDS011;10358;49.590;11.030;2023-09-19T05:16:09;4.18;;;1.80;;
20397;SDS011;10358;49.590;11.030;2023-09-19T05:18:37;7.85;;;1.50;;
20397;SDS011;10358;49.590;11.030;2023-09-19T05:21:03;4.15;;;1.90;;
20397;SDS011;10358;49.590;11.030;2023-09-19T05:23:29;4.63;;;1.95;;
20397;SDS011;10358;49.590;11.030;2023-09-19T05:25:54;8.57;;;1.70;;
20397;SDS011;10358;49.590;11.030;2023-09-19T05:28:22;2.15;;;1.52;;
20397;SDS011;10358;49.590;11.030;2023-09-19T05:30:47;3.78;;;1.70;;
20397;SDS011;10358;49.590;11.030;2023-09-19T05:33:14;6.18;;;1.85;;
20397;SDS011;10358;49.590;11.030;2023-09-19T05:35:39;2.88;;;1.58;;
20397;SDS011;10358;49.590;11.030;2023-09-19T05:38:06;4.88;;;1.90;;
20397;SDS011;10358;49.590;11.030;2023-09-19T05:40:34;3.38;;;1.80;;
20397;SDS011;10358;49.590;11.030;2023-09-19T05:43:00;3.85;;;1.58;;
20397;SDS011;10358;49.590;11.030;2023-09-19T05:45:26;3.53;;;1.77;;
20397;SDS011;10358;49.590;11.030;2023-09-19T05:47:52;2.70;;;1.50;;
20397;SDS011;10358;49.590;11.030;2023-09-19T05:50:20;3.95;;;1.70;;
20397;SDS011;10358;49.590;11.030;2023-09-19T05:52:53;7.95;;;1.90;;
20397;SDS011;10358;49.590;11.030;2023-09-19T05:55:21;5.63;;;1.85;;
20397;SDS011;10358;49.590;11.030;2023-09-19T05:57:50;3.63;;;1.70;;
20397;SDS011;10358;49.590;11.030;2023-09-19T06:00:17;5.57;;;1.92;;
20397;SDS011;10358;49.590;11.030;2023-09-19T06:02:52;4.22;;;1.60;;
20397;SDS011;10358;49.590;11.030;2023-09-19T06:05:19;5.53;;;1.70;;
20397;SDS011;10358;49.590;11.030;2023-09-19T06:07:45;2.47;;;1.50;;
20397;SDS011;10358;49.590;11.030;2023-09-19T06:10:12;3.78;;;1.60;;
20397;SDS011;10358;49.590;11.030;2023-09-19T06:12:41;3.70;;;1.67;;
20397;SDS011;10358;49.590;11.030;2023-09-19T06:15:11;2.63;;;1.50;;
20397;SDS011;10358;49.590;11.030;2023-09-19T06:17:50;3.67;;;1.75;;
20397;SDS011;10358;49.590;11.030;2023-09-19T06:20:23;2.83;;;1.45;;
20397;SDS011;10358;49.590;11.030;2023-09-19T06:22:50;3.85;;;1.67;;
20397;SDS011;10358;49.590;11.030;2023-09-19T06:25:16;5.88;;;1.83;;
20397;SDS011;10358;49.590;11.030;2023-09-19T06:27:45;6.70;;;1.77;;
20397;SDS011;10358;49.590;11.030;2023-09-19T06:30:12;3.35;;;1.60;;
20397;SDS011;10358;49.590;11.030;2023-09-19T06:32:38;3.13;;;1.80;;
20397;SDS011;10358;49.590;11.030;2023-09-19T06:35:05;7.65;;;1.70;;
20397;SDS011;10358;49.590;11.030;2023-09-19T06:37:36;3.95;;;1.67;;
20397;SDS011;10358;49.590;11.030;2023-09-19T06:42:43;3.22;;;1.50;;
20397;SDS011;10358;49.590;11.030;2023-09-19T06:45:13;10.25;;;1.90;;
20397;SDS011;10358;49.590;11.030;2023-09-19T06:47:43;4.32;;;1.77;;
20397;SDS011;10358;49.590;11.030;2023-09-19T06:50:10;4.90;;;1.70;;
20397;SDS011;10358;49.590;11.030;2023-09-19T06:52:42;4.15;;;2.35;;
20397;SDS011;10358;49.590;11.030;2023-09-19T06:55:08;4.88;;;1.77;;
20397;SDS011;10358;49.590;11.030;2023-09-19T06:57:41;2.95;;;1.70;;
20397;SDS011;10358;49.590;11.030;2023-09-19T07:00:09;3.10;;;1.52;;
20397;SDS011;10358;49.590;11.030;2023-09-19T07:02:59;3.45;;;1.85;;
20397;SDS011;10358;49.590;11.030;2023-09-19T07:05:29;5.18;;;1.70;;
20397;SDS011;10358;49.590;11.030;2023-09-19T07:07:58;5.32;;;2.08;;
20397;SDS011;10358;49.590;11.030;2023-09-19T07:10:25;3.90;;;1.60;;
20397;SDS011;10358;49.590;11.030;2023-09-19T07:12:57;3.05;;;1.60;;
20397;SDS011;10358;49.590;11.030;2023-09-19T07:15:24;3.90;;;1.85;;
20397;SDS011;10358;49.590;11.030;2023-09-19T07:17:54;4.07;;;1.60;;
20397;SDS011;10358;49.590;11.030;2023-09-19T07:20:21;4.63;;;1.60;;
20397;SDS011;10358;49.590;11.030;2023-09-19T07:22:48;5.18;;;1.80;;
20397;SDS011;10358;49.590;11.030;2023-09-19T07:25:15;4.28;;;1.80;;
20397;SDS011;10358;49.590;11.030;2023-09-19T07:27:41;3.65;;;1.88;;
20397;SDS011;10358;49.590;11.030;2023-09-19T07:30:07;4.68;;;2.03;;
20397;SDS011;10358;49.590;11.030;2023-09-19T07:32:34;4.03;;;1.75;;
20397;SDS011;10358;49.590;11.030;2023-09-19T07:35:03;5.35;;;1.83;;
20397;SDS011;10358;49.590;11.030;2023-09-19T07:37:30;4.97;;;1.70;;
20397;SDS011;10358;49.590;11.030;2023-09-19T07:39:58;4.07;;;2.10;;
20397;SDS011;10358;49.590;11.030;2023-09-19T07:42:25;2.78;;;1.65;;
20397;SDS011;10358;49.590;11.030;2023-09-19T07:44:51;4.43;;;1.77;;
20397;SDS011;10358;49.590;11.030;2023-09-19T07:47:18;3.53;;;1.60;;
20397;SDS011;10358;49.590;11.030;2023-09-19T07:49:49;4.68;;;1.90;;
20397;SDS011;10358;49.590;11.030;2023-09-19T07:52:14;4.30;;;1.83;;
20397;SDS011;10358;49.590;11.030;2023-09-19T07:54:41;4.53;;;1.90;;
20397;SDS011;10358;49.590;11.030;2023-09-19T07:57:09;6.40;;;1.90;;
20397;SDS011;10358;49.590;11.030;2023-09-19T07:59:35;3.67;;;1.42;;
20397;SDS011;10358;49.590;11.030;2023-09-19T08:02:01;7.43;;;1.63;;
20397;SDS011;10358;49.590;11.030;2023-09-19T08:04:29;6.60;;;1.90;;
20397;SDS011;10358;49.590;11.030;2023-09-19T08:06:58;9.65;;;2.00;;
20397;SDS011;10358;49.590;11.030;2023-09-19T08:09:25;4.38;;;1.70;;
20397;SDS011;10358;49.590;11.030;2023-09-19T08:11:52;6.65;;;1.80;;
20397;SDS011;10358;49.590;11.030;2023-09-19T08:14:18;4.72;;;1.70;;
20397;SDS011;10358;49.590;11.030;2023-09-19T08:16:43;2.22;;;1.40;;
20397;SDS011;10358;49.590;11.030;2023-09-19T08:19:09;5.90;;;1.70;;
20397;SDS011;10358;49.590;11.030;2023-09-19T08:21:35;6.20;;;1.63;;
20397;SDS011;10358;49.590;11.030;2023-09-19T08:24:01;5.30;;;1.48;;
20397;SDS011;10358;49.590;11.030;2023-09-19T08:26:30;5.78;;;1.80;;
20397;SDS011;10358;49.590;11.030;2023-09-19T08:28:56;3.83;;;1.58;;
20397;SDS011;10358;49.590;11.030;2023-09-19T08:31:22;5.85;;;1.58;;
20397;SDS011;10358;49.590;11.030;2023-09-19T08:33:48;4.60;;;1.45;;
20397;SDS011;10358;49.590;11.030;2023-09-19T08:36:16;3.40;;;1.50;;
20397;SDS011;10358;49.590;11.030;2023-09-19T08:38:42;5.25;;;1.67;;
20397;SDS011;10358;49.590;11.030;2023-09-19T08:41:07;2.97;;;1.50;;
20397;SDS011;10358;49.590;11.030;2023-09-19T08:43:33;3.50;;;1.40;;
20397;SDS011;10358;49.590;11.030;2023-09-19T08:46:05;5.38;;;1.65;;
20397;SDS011;10358;49.590;11.030;2023-09-19T08:48:54;7.40;;;1.60;;
20397;SDS011;10358;49.590;11.030;2023-09-19T08:51:27;5.22;;;1.65;;
20397;SDS011;10358;49.590;11.030;2023-09-19T08:54:09;5.28;;;1.73;;
20397;SDS011;10358;49.590;11.030;2023-09-19T08:56:48;3.47;;;1.33;;
20397;SDS011;10358;49.590;11.030;2023-09-19T08:59:15;6.78;;;1.42;;
20397;SDS011;10358;49.590;11.030;2023-09-19T09:01:43;8.10;;;2.10;;
20397;SDS011;10358;49.590;11.030;2023-09-19T09:04:09;3.40;;;1.50;;
20397;SDS011;10358;49.590;11.030;2023-09-19T09:06:38;3.35;;;1.30;;
20397;SDS011;10358;49.590;11.030;2023-09-19T09:09:04;5.35;;;1.60;;
20397;SDS011;10358;49.590;11.030;2023-09-19T09:11:30;3.83;;;1.38;;
20397;SDS011;10358;49.590;11.030;2023-09-19T09:13:58;4.57;;;1.50;;
20397;SDS011;10358;49.590;11.030;2023-09-19T09:16:23;5.28;;;1.23;;
20397;SDS011;10358;49.590;11.030;2023-09-19T09:18:50;3.63;;;1.30;;
20397;SDS011;10358;49.590;11.030;2023-09-19T09:21:17;4.50;;;1.50;;
20397;SDS011;10358;49.590;11.030;2023-09-19T09:23:43;4.47;;;1.40;;
20397;SDS011;10358;49.590;11.030;2023-09-19T09:26:09;3.00;;;1.50;;
20397;SDS011;10358;49.590;11.030;2023-09-19T09:28:35;3.08;;;1.20;;
20397;SDS011;10358;49.590;11.030;2023-09-19T09:31:04;4.43;;;1.20;;
20397;SDS011;10358;49.590;11.030;2023-09-19T09:33:35;2.67;;;1.35;;
20397;SDS011;10358;49.590;11.030;2023-09-19T09:36:02;3.30;;;1.35;;
20397;SDS011;10358;49.590;11.030;2023-09-19T09:38:29;4.07;;;1.30;;
20397;SDS011;10358;49.590;11.030;2023-09-19T09:41:09;4.22;;;1.65;;
20397;SDS011;10358;49.590;11.030;2023-09-19T09:43:38;2.85;;;1.48;;
20397;SDS011;10358;49.590;11.030;2023-09-19T09:46:07;3.45;;;1.48;;
20397;SDS011;10358;49.590;11.030;2023-09-19T09:49:01;2.03;;;1.17;;
20397;SDS011;10358;49.590;11.030;2023-09-19T09:54:57;2.10;;;1.00;;
20397;SDS011;10358;49.590;11.030;2023-09-19T09:57:30;3.97;;;1.15;;
20397;SDS011;10358;49.590;11.030;2023-09-19T09:59:57;3.67;;;1.27;;
20397;SDS011;10358;49.590;11.030;2023-09-19T10:02:27;2.72;;;1.20;;
20397;SDS011;10358;49.590;11.030;2023-09-19T10:05:20;2.97;;;1.10;;
20397;SDS011;10358;49.590;11.030;2023-09-19T10:07:50;2.58;;;1.10;;
20397;SDS011;10358;49.590;11.030;2023-09-19T10:10:37;3.58;;;1.27;;
20397;SDS011;10358;49.590;11.030;2023-09-19T10:13:09;4.00;;;1.45;;
20397;SDS011;10358;49.590;11.030;2023-09-19T10:15:37;3.22;;;1.30;;
20397;SDS011;10358;49.590;11.030;2023-09-19T10:18:05;3.33;;;1.10;;
20397;SDS011;10358;49.590;11.030;2023-09-19T10:20:33;2.78;;;1.30;;
20397;SDS011;10358;49.590;11.030;2023-09-19T10:23:04;3.33;;;1.38;;
20397;SDS011;10358;49.590;11.030;2023-09-19T10:25:38;3.35;;;1.50;;
20397;SDS011;10358;49.590;11.030;2023-09-19T10:28:11;3.53;;;1.52;;
20397;SDS011;10358;49.590;11.030;2023-09-19T10:30:40;7.72;;;1.63;;
20397;SDS011;10358;49.590;11.030;2023-09-19T10:33:12;3.35;;;1.38;;
20397;SDS011;10358;49.590;11.030;2023-09-19T10:35:40;3.60;;;1.20;;
20397;SDS011;10358;49.590;11.030;2023-09-19T10:38:11;4.75;;;1.48;;
20397;SDS011;10358;49.590;11.030;2023-09-19T10:40:38;6.15;;;1.42;;
20397;SDS011;10358;49.590;11.030;2023-09-19T10:43:17;4.03;;;1.35;;
20397;SDS011;10358;49.590;11.030;2023-09-19T10:45:44;5.10;;;1.42;;
20397;SDS011;10358;49.590;11.030;2023-09-19T10:48:14;6.60;;;1.38;;
20397;SDS011;10358;49.590;11.030;2023-09-19T10:50:44;4.72;;;1.40;;
20397;SDS011;10358;49.590;11.030;2023-09-19T10:53:15;6.57;;;1.55;;
20397;SDS011;10358;49.590;11.030;2023-09-19T10:55:47;3.30;;;1.35;;
20397;SDS011;10358;49.590;11.030;2023-09-19T10:58:24;4.38;;;1.35;;
20397;SDS011;10358;49.590;11.030;2023-09-19T11:00:59;3.25;;;1.42;;
20397;SDS011;10358;49.590;11.030;2023-09-19T11:03:32;4.25;;;1.67;;
20397;SDS011;10358;49.590;11.030;2023-09-19T11:06:02;4.72;;;1.50;;
20397;SDS011;10358;49.590;11.030;2023-09-19T11:08:30;3.80;;;1.45;;
20397;SDS011;10358;49.590;11.030;2023-09-19T11:30:31;6.75;;;1.50;;
20397;SDS011;10358;49.590;11.030;2023-09-19T11:46:29;3.50;;;1.40;;
20397;SDS011;10358;49.590;11.030;2023-09-19T11:48:56;3.20;;;1.15;;
20397;SDS011;10358;49.590;11.030;2023-09-19T11:51:41;6.63;;;1.50;;
20397;SDS011;10358;49.590;11.030;2023-09-19T11:54:10;5.28;;;1.17;;
20397;SDS011;10358;49.590;11.030;2023-09-19T11:56:43;2.58;;;1.15;;
20397;SDS011;10358;49.590;11.030;2023-09-19T11:59:10;3.75;;;1.10;;
20397;SDS011;10358;49.590;11.030;2023-09-19T12:01:37;5.53;;;1.45;;
20397;SDS011;10358;49.590;11.030;2023-09-19T12:04:11;3.60;;;1.40;;
20397;SDS011;10358;49.590;11.030;2023-09-19T12:06:37;2.50;;;1.30;;
20397;SDS011;10358;49.590;11.030;2023-09-19T12:09:07;5.15;;;1.30;;
20397;SDS011;10358;49.590;11.030;2023-09-19T12:11:42;4.53;;;1.35;;
20397;SDS011;10358;49.590;11.030;2023-09-19T12:14:09;4.38;;;1.25;;
20397;SDS011;10358;49.590;11.030;2023-09-19T12:16:35;2.92;;;1.10;;
20397;SDS011;10358;49.590;11.030;2023-09-19T12:19:17;4.93;;;1.27;;
20397;SDS011;10358;49.590;11.030;2023-09-19T12:22:02;4.03;;;1.58;;
20397;SDS011;10358;49.590;11.030;2023-09-19T12:24:31;3.72;;;1.30;;
20397;SDS011;10358;49.590;11.030;2023-09-19T12:27:01;3.45;;;1.17;;
20397;SDS011;10358;49.590;11.030;2023-09-19T12:29:31;3.15;;;1.33;;
20397;SDS011;10358;49.590;11.030;2023-09-19T12:32:06;3.08;;;1.20;;
20397;SDS011;10358;49.590;11.030;2023-09-19T12:34:32;7.32;;;1.38;;
20397;SDS011;10358;49.590;11.030;2023-09-19T12:37:08;2.83;;;1.20;;
20397;SDS011;10358;49.590;11.030;2023-09-19T12:39:46;3.22;;;1.35;;
20397;SDS011;10358;49.590;11.030;2023-09-19T12:42:14;4.07;;;1.10;;
20397;SDS011;10358;49.590;11.030;2023-09-19T12:44:41;3.75;;;1.35;;
20397;SDS011;10358;49.590;11.030;2023-09-19T12:47:15;3.72;;;1.20;;
20397;SDS011;10358;49.590;11.030;2023-09-19T12:52:42;4.50;;;1.33;;
20397;SDS011;10358;49.590;11.030;2023-09-19T12:57:59;4.38;;;1.60;;
20397;SDS011;10358;49.590;11.030;2023-09-19T13:00:40;4.25;;;1.30;;
20397;SDS011;10358;49.590;11.030;2023-09-19T13:03:14;6.78;;;1.35;;
20397;SDS011;10358;49.590;11.030;2023-09-19T13:05:59;4.28;;;1.38;;
20397;SDS011;10358;49.590;11.030;2023-09-19T13:08:28;4.03;;;1.60;;
20397;SDS011;10358;49.590;11.030;2023-09-19T13:11:14;2.92;;;1.20;;
20397;SDS011;10358;49.590;11.030;2023-09-19T13:14:14;4.22;;;1.40;;
20397;SDS011;10358;49.590;11.030;2023-09-19T13:19:57;4.22;;;1.40;;
20397;SDS011;10358;49.590;11.030;2023-09-19T13:22:40;3.67;;;1.27;;
20397;SDS011;10358;49.590;11.030;2023-09-19T13:25:13;5.43;;;1.90;;
20397;SDS011;10358;49.590;11.030;2023-09-19T13:27:43;4.72;;;1.48;;
20397;SDS011;10358;49.590;11.030;2023-09-19T13:30:16;4.95;;;1.20;;
20397;SDS011;10358;49.590;11.030;2023-09-19T13:32:43;3.00;;;1.30;;
20397;SDS011;10358;49.590;11.030;2023-09-19T13:35:08;5.32;;;1.50;;
20397;SDS011;10358;49.590;11.030;2023-09-19T13:37:35;9.00;;;1.40;;
20397;SDS011;10358;49.590;11.030;2023-09-19T13:40:04;3.88;;;1.40;;
20397;SDS011;10358;49.590;11.030;2023-09-19T13:42:30;4.43;;;1.30;;
20397;SDS011;10358;49.590;11.030;2023-09-19T13:44:56;5.68;;;1.45;;
20397;SDS011;10358;49.590;11.030;2023-09-19T13:47:22;4.00;;;1.70;;
20397;SDS011;10358;49.590;11.030;2023-09-19T13:49:50;4.22;;;1.42;;
20397;SDS011;10358;49.590;11.030;2023-09-19T13:52:18;7.57;;;1.65;;
20397;SDS011;10358;49.590;11.030;2023-09-19T13:54:44;2.95;;;1.35;;
20397;SDS011;10358;49.590;11.030;2023-09-19T13:57:09;3.88;;;1.50;;
20397;SDS011;10358;49.590;11.030;2023-09-19T13:59:35;6.38;;;1.50;;
20397;SDS011;10358;49.590;11.030;2023-09-19T14:02:01;3.00;;;1.48;;
20397;SDS011;10358;49.590;11.030;2023-09-19T14:04:30;3.30;;;1.20;;
20397;SDS011;10358;49.590;11.030;2023-09-19T14:06:56;3.33;;;1.45;;
20397;SDS011;10358;49.590;11.030;2023-09-19T14:09:23;5.20;;;1.30;;
20397;SDS011;10358;49.590;11.030;2023-09-19T14:11:49;3.05;;;1.50;;
20397;SDS011;10358;49.590;11.030;2023-09-19T14:14:17;6.38;;;1.65;;
20397;SDS011;10358;49.590;11.030;2023-09-19T14:16:52;3.47;;;1.20;;
20397;SDS011;10358;49.590;11.030;2023-09-19T14:19:18;4.32;;;1.42;;
20397;SDS011;10358;49.590;11.030;2023-09-19T14:21:50;3.85;;;1.20;;
20397;SDS011;10358;49.590;11.030;2023-09-19T14:24:17;6.38;;;1.40;;
20397;SDS011;10358;49.590;11.030;2023-09-19T14:26:43;2.60;;;1.48;;
20397;SDS011;10358;49.590;11.030;2023-09-19T14:29:08;4.93;;;1.40;;
20397;SDS011;10358;49.590;11.030;2023-09-19T14:31:37;2.67;;;1.30;;
20397;SDS011;10358;49.590;11.030;2023-09-19T14:34:05;3.90;;;1.50;;
20397;SDS011;10358;49.590;11.030;2023-09-19T14:36:30;5.38;;;1.55;;
20397;SDS011;10358;49.590;11.030;2023-09-19T14:38:56;4.10;;;1.38;;
20397;SDS011;10358;49.590;11.030;2023-09-19T14:41:22;3.13;;;1.33;;
20397;SDS011;10358;49.590;11.030;2023-09-19T14:43:48;5.30;;;1.50;;
20397;SDS011;10358;49.590;11.030;2023-09-19T14:46:14;3.08;;;1.15;;
20397;SDS011;10358;49.590;11.030;2023-09-19T14:48:41;4.47;;;1.20;;
20397;SDS011;10358;49.590;11.030;2023-09-19T14:51:07;5.55;;;1.42;;
20397;SDS011;10358;49.590;11.030;2023-09-19T14:53:36;4.07;;;1.42;;
20397;SDS011;10358;49.590;11.030;2023-09-19T14:56:07;4.45;;;1.30;;
20397;SDS011;10358;49.590;11.030;2023-09-19T14:58:34;2.30;;;1.20;;
20397;SDS011;10358;49.590;11.030;2023-09-19T15:01:07;5.38;;;1.30;;
20397;SDS011;10358;49.590;11.030;2023-09-19T15:03:35;2.42;;;1.20;;
20397;SDS011;10358;49.590;11.030;2023-09-19T15:06:05;4.05;;;1.40;;
20397;SDS011;10358;49.590;11.030;2023-09-19T15:08:36;4.68;;;1.38;;
20397;SDS011;10358;49.590;11.030;2023-09-19T15:11:05;3.17;;;1.10;;
20397;SDS011;10358;49.590;11.030;2023-09-19T15:13:35;5.45;;;1.50;;
20397;SDS011;10358;49.590;11.030;2023-09-19T15:16:01;2.95;;;1.30;;
20397;SDS011;10358;49.590;11.030;2023-09-19T15:18:33;4.07;;;1.40;;
20397;SDS011;10358;49.590;11.030;2023-09-19T15:21:02;4.22;;;1.50;;
20397;SDS011;10358;49.590;11.030;2023-09-19T15:23:32;4.30;;;1.40;;
20397;SDS011;10358;49.590;11.030;2023-09-19T15:26:02;6.57;;;1.45;;
20397;SDS011;10358;49.590;11.030;2023-09-19T15:28:31;3.05;;;1.23;;
20397;SDS011;10358;49.590;11.030;2023-09-19T15:31:01;6.28;;;1.20;;
20397;SDS011;10358;49.590;11.030;2023-09-19T15:33:29;4.45;;;1.42;;
20397;SDS011;10358;49.590;11.030;2023-09-19T15:36:04;2.83;;;1.30;;
20397;SDS011;10358;49.590;11.030;2023-09-19T15:41:15;7.20;;;1.40;;
20397;SDS011;10358;49.590;11.030;2023-09-19T15:43:41;4.28;;;1.55;;
20397;SDS011;10358;49.590;11.030;2023-09-19T15:46:06;4.57;;;1.30;;
20397;SDS011;10358;49.590;11.030;2023-09-19T15:48:32;6.32;;;1.40;;